Dyess Air Force Base
KDYS : rendu visible

Aérodrome :











RETROUVEZ-NOUS SUR...

 
LOGIN :

S'inscrire | Disclaimer

   EN    FR    IT 

 









Légende :    VFR   VFR Marginal   IFR   IFR Intensif   IFR Très Intensif
Visi : 
Plafond : 
>= 8 km
>= 3000ft
5 à 8 km
1000 à 3000 ft
1500m à 5 km
500 à 1000 ft
800 à 1500m
200 à 500 ft
< 800m
< 200 ft
Symboles :   Orages  Brouillard  Fortes neiges  Fortes précipitations  Vent > 20 kt






- Altitude de l'aérodrome : 1789 ft


KDYS - Dyess Air Force Base

DERNIER METAR :
  • 250756Z AUTO 30007KT 10SM CLR 06/M02 A3004 RMK AO2 SLP151 T00571022

METARs EXPIRÉS :
  • 250656Z AUTO 31006KT 10SM CLR 07/M01 A3002 RMK AO2 SLP144 T00721015
  • 250556Z AUTO 33010KT 10SM CLR 09/M01 A3001 RMK AO2 SLP141 T00871009 10237 20087 402700087 52040

TAF TAF KDYS
Valide du 25 à 05h jusqu'au 26 à 11h UTC


250500Z 2505/2611 31012KT 9999 SKC QNH2996INS
BECMG 2511/2512 VRB06KT 9999 SKC QNH3002INS
BECMG 2602/2603 17009KT 9999 SKC QNH2997INS TX17/2521Z TN04/2512Z LAST NO AMDS AFT 2506 NEXT 2513
FIR KZFW / Amérique du Nord



MET'MAP, la Météo Aéronautique d'un coup d'oeil ! - Copyright ORBIFLY Décembre 2007 - Disclaimer

ORBIFLY MET'MAP TEAM :

Programmation & Développement : Alexandra Zaïnal
Sur une idée originale de : Baudouin d'Aumeries
Assistance à la programmation : Marc-Olivier Méhu
Soutien technique & logistique : Manuel Goepfert

Contact : metmap@orbifly.com




SOURCES & CREDITS :

   NOAA       Earth
Advisory